Decoded Metar for LTBF (BALIKESIR in TURKEY) (IATA:BZI) | Meteo·Mobile Aviation Weather
aviador You're here:

LTBF Decoded Metar

BALIKESIR in TURKEY
Report Time2018-11-21 17:50:00
UTC Time2018-11-21 18:27:15
Flight Rules vfr VFR
Wind150° at 03 kt
W.Decomp.*RWY 18: 2.5 kt HW 1.7 kt LCW
W.Rank150° ranks 28
Current wind is below 150° avg. (4.1)
Visibility9999 m
Phenomena:N/A
Clouds:Few 035 Hf
Scattered 100 Hf
Expected CloudBase > 400 ft AGL from Temp-Dew spread
CeilingNone
Temp12°C (ISA -2)
Dew Point11°C (94% RH)
AAT11.3°C
QNH1012 hPa
Density Alt269 ft
Elevation335 ft
Report Wrong Elevation
Raw Report
METAR LTBF 211750Z 15003KT 9999 FEW035 SCT100 12/11 Q1012 NOSIG RMK
RWY18 VRB01KT=

Extra information for LTBF:More info

Metar Taf Metar & Taf Last 4 Metars F.Rules Stats Wind Profile Meteogram Temp Stats Airport Information Weather charts Add Link Nearby VenuesMetar ALERT Operation Metar Decoded Social comments